sensor_id;sensor_type;location;lat;lon;timestamp;temperature;humidity
56861;DHT22;42744;51.094;3.490;2022-12-29T00:00:13;11.00;99.90
56861;DHT22;42744;51.094;3.490;2022-12-29T00:02:40;11.10;99.90
56861;DHT22;42744;51.094;3.490;2022-12-29T00:05:07;11.10;99.90
56861;DHT22;42744;51.094;3.490;2022-12-29T00:07:33;11.10;99.90
56861;DHT22;42744;51.094;3.490;2022-12-29T00:09:59;11.20;99.90
56861;DHT22;42744;51.094;3.490;2022-12-29T00:12:25;11.20;99.90
56861;DHT22;42744;51.094;3.490;2022-12-29T00:15:11;11.20;99.90
56861;DHT22;42744;51.094;3.490;2022-12-29T00:17:59;11.20;99.90
56861;DHT22;42744;51.094;3.490;2022-12-29T00:20:26;11.20;99.90
56861;DHT22;42744;51.094;3.490;2022-12-29T00:23:10;11.20;99.90
56861;DHT22;42744;51.094;3.490;2022-12-29T00:25:55;11.20;99.90
56861;DHT22;42744;51.094;3.490;2022-12-29T00:28:41;11.20;99.90
56861;DHT22;42744;51.094;3.490;2022-12-29T00:31:26;11.20;99.90
56861;DHT22;42744;51.094;3.490;2022-12-29T00:34:11;11.30;99.90
56861;DHT22;42744;51.094;3.490;2022-12-29T00:36:56;11.20;99.90
56861;DHT22;42744;51.094;3.490;2022-12-29T00:39:23;11.20;99.90
56861;DHT22;42744;51.094;3.490;2022-12-29T00:42:09;11.20;99.90
56861;DHT22;42744;51.094;3.490;2022-12-29T00:44:53;11.20;99.90
56861;DHT22;42744;51.094;3.490;2022-12-29T00:47:20;11.20;99.90
56861;DHT22;42744;51.094;3.490;2022-12-29T00:49:49;11.10;99.90
56861;DHT22;42744;51.094;3.490;2022-12-29T00:52:16;11.00;99.90
56861;DHT22;42744;51.094;3.490;2022-12-29T00:54:44;10.90;99.90
56861;DHT22;42744;51.094;3.490;2022-12-29T00:57:10;10.80;99.90
56861;DHT22;42744;51.094;3.490;2022-12-29T00:59:41;10.80;99.90
56861;DHT22;42744;51.094;3.490;2022-12-29T01:02:09;10.80;99.90
56861;DHT22;42744;51.094;3.490;2022-12-29T01:04:37;10.80;99.90
56861;DHT22;42744;51.094;3.490;2022-12-29T01:07:03;10.80;99.90
56861;DHT22;42744;51.094;3.490;2022-12-29T01:09:33;10.80;99.90
56861;DHT22;42744;51.094;3.490;2022-12-29T01:12:18;10.80;99.90
56861;DHT22;42744;51.094;3.490;2022-12-29T01:15:05;10.80;99.90
56861;DHT22;42744;51.094;3.490;2022-12-29T01:17:31;10.80;99.90
56861;DHT22;42744;51.094;3.490;2022-12-29T01:19:57;10.90;99.90
56861;DHT22;42744;51.094;3.490;2022-12-29T01:22:23;10.90;99.90
56861;DHT22;42744;51.094;3.490;2022-12-29T01:24:55;10.90;99.90
56861;DHT22;42744;51.094;3.490;2022-12-29T01:27:21;11.00;99.90
56861;DHT22;42744;51.094;3.490;2022-12-29T01:29:50;11.00;99.90
56861;DHT22;42744;51.094;3.490;2022-12-29T01:32:25;10.90;99.90
56861;DHT22;42744;51.094;3.490;2022-12-29T01:34:53;10.90;99.90
56861;DHT22;42744;51.094;3.490;2022-12-29T01:37:19;11.00;99.90
56861;DHT22;42744;51.094;3.490;2022-12-29T01:39:49;11.00;99.90
56861;DHT22;42744;51.094;3.490;2022-12-29T01:42:21;11.00;99.90
56861;DHT22;42744;51.094;3.490;2022-12-29T01:47:47;10.90;99.90
56861;DHT22;42744;51.094;3.490;2022-12-29T01:53:32;11.00;99.90
56861;DHT22;42744;51.094;3.490;2022-12-29T01:55:44;11.00;99.90
56861;DHT22;42744;51.094;3.490;2022-12-29T01:58:14;11.00;99.90
56861;DHT22;42744;51.094;3.490;2022-12-29T02:00:46;11.00;99.90
56861;DHT22;42744;51.094;3.490;2022-12-29T02:03:14;11.00;99.90
56861;DHT22;42744;51.094;3.490;2022-12-29T02:08:26;11.10;99.90
56861;DHT22;42744;51.094;3.490;2022-12-29T02:10:56;11.00;99.90
56861;DHT22;42744;51.094;3.490;2022-12-29T02:13:25;11.00;99.90
56861;DHT22;42744;51.094;3.490;2022-12-29T02:44:12;10.20;99.90
56861;DHT22;42744;51.094;3.490;2022-12-29T02:46:51;10.10;99.90
56861;DHT22;42744;51.094;3.490;2022-12-29T02:52:22;10.10;99.90
56861;DHT22;42744;51.094;3.490;2022-12-29T02:54:50;10.10;99.90
56861;DHT22;42744;51.094;3.490;2022-12-29T02:59:57;10.00;99.90
56861;DHT22;42744;51.094;3.490;2022-12-29T03:05:37;9.90;99.90
56861;DHT22;42744;51.094;3.490;2022-12-29T03:11:02;9.70;99.90
56861;DHT22;42744;51.094;3.490;2022-12-29T03:13:56;9.70;99.90
56861;DHT22;42744;51.094;3.490;2022-12-29T03:19:28;9.70;99.90
56861;DHT22;42744;51.094;3.490;2022-12-29T03:22:08;9.70;99.90
56861;DHT22;42744;51.094;3.490;2022-12-29T03:25:05;9.70;99.90
56861;DHT22;42744;51.094;3.490;2022-12-29T03:27:58;9.70;99.90
56861;DHT22;42744;51.094;3.490;2022-12-29T03:30:29;9.70;99.90
56861;DHT22;42744;51.094;3.490;2022-12-29T03:33:01;9.60;99.90
56861;DHT22;42744;51.094;3.490;2022-12-29T03:35:31;9.70;99.90
56861;DHT22;42744;51.094;3.490;2022-12-29T03:38:25;9.70;99.90
56861;DHT22;42744;51.094;3.490;2022-12-29T03:40:59;9.80;99.90
56861;DHT22;42744;51.094;3.490;2022-12-29T03:43:28;9.80;99.90
56861;DHT22;42744;51.094;3.490;2022-12-29T03:45:56;9.80;99.90
56861;DHT22;42744;51.094;3.490;2022-12-29T03:48:22;9.70;99.90
56861;DHT22;42744;51.094;3.490;2022-12-29T03:50:53;9.80;99.90
56861;DHT22;42744;51.094;3.490;2022-12-29T03:53:19;9.80;99.90
56861;DHT22;42744;51.094;3.490;2022-12-29T03:55:46;9.80;99.90
56861;DHT22;42744;51.094;3.490;2022-12-29T03:58:15;9.80;99.90
56861;DHT22;42744;51.094;3.490;2022-12-29T04:00:44;9.90;99.90
56861;DHT22;42744;51.094;3.490;2022-12-29T04:03:18;9.90;99.90
56861;DHT22;42744;51.094;3.490;2022-12-29T04:05:47;9.90;99.90
56861;DHT22;42744;51.094;3.490;2022-12-29T04:08:14;9.90;99.90
56861;DHT22;42744;51.094;3.490;2022-12-29T04:10:42;9.90;99.90
56861;DHT22;42744;51.094;3.490;2022-12-29T04:13:08;9.80;99.90
56861;DHT22;42744;51.094;3.490;2022-12-29T04:15:36;9.90;99.90
56861;DHT22;42744;51.094;3.490;2022-12-29T04:18:02;9.80;99.90
56861;DHT22;42744;51.094;3.490;2022-12-29T04:20:32;9.70;99.90
56861;DHT22;42744;51.094;3.490;2022-12-29T04:23:17;9.70;99.90
56861;DHT22;42744;51.094;3.490;2022-12-29T04:25:46;9.70;99.90
56861;DHT22;42744;51.094;3.490;2022-12-29T04:28:15;9.60;99.90
56861;DHT22;42744;51.094;3.490;2022-12-29T04:30:46;9.60;99.90
56861;DHT22;42744;51.094;3.490;2022-12-29T04:33:12;9.60;99.90
56861;DHT22;42744;51.094;3.490;2022-12-29T04:35:38;9.60;99.90
56861;DHT22;42744;51.094;3.490;2022-12-29T04:38:05;9.70;99.90
56861;DHT22;42744;51.094;3.490;2022-12-29T04:40:33;9.70;99.90
56861;DHT22;42744;51.094;3.490;2022-12-29T04:43:00;9.70;99.90
56861;DHT22;42744;51.094;3.490;2022-12-29T04:45:26;9.70;99.90
56861;DHT22;42744;51.094;3.490;2022-12-29T04:47:53;9.70;99.90
56861;DHT22;42744;51.094;3.490;2022-12-29T04:50:19;9.70;99.90
56861;DHT22;42744;51.094;3.490;2022-12-29T04:52:49;9.80;99.90
56861;DHT22;42744;51.094;3.490;2022-12-29T04:55:20;9.80;99.90
56861;DHT22;42744;51.094;3.490;2022-12-29T04:57:46;9.80;99.90
56861;DHT22;42744;51.094;3.490;2022-12-29T05:00:14;9.80;99.90
56861;DHT22;42744;51.094;3.490;2022-12-29T05:02:40;9.80;99.90
56861;DHT22;42744;51.094;3.490;2022-12-29T05:05:10;9.80;99.90
56861;DHT22;42744;51.094;3.490;2022-12-29T05:07:38;9.80;99.90
56861;DHT22;42744;51.094;3.490;2022-12-29T05:10:05;9.80;99.90
56861;DHT22;42744;51.094;3.490;2022-12-29T05:12:33;9.80;99.90
56861;DHT22;42744;51.094;3.490;2022-12-29T05:15:05;9.80;99.90
56861;DHT22;42744;51.094;3.490;2022-12-29T05:17:32;9.80;99.90
56861;DHT22;42744;51.094;3.490;2022-12-29T05:19:59;9.70;99.90
56861;DHT22;42744;51.094;3.490;2022-12-29T05:22:25;9.70;99.90
56861;DHT22;42744;51.094;3.490;2022-12-29T05:24:53;9.70;99.90
56861;DHT22;42744;51.094;3.490;2022-12-29T05:27:19;9.80;99.90
56861;DHT22;42744;51.094;3.490;2022-12-29T05:29:45;9.80;99.90
56861;DHT22;42744;51.094;3.490;2022-12-29T05:32:12;9.90;99.90
56861;DHT22;42744;51.094;3.490;2022-12-29T05:34:38;9.90;99.90
56861;DHT22;42744;51.094;3.490;2022-12-29T05:37:04;9.90;99.90
56861;DHT22;42744;51.094;3.490;2022-12-29T05:39:31;9.90;99.90
56861;DHT22;42744;51.094;3.490;2022-12-29T05:41:57;9.90;99.90
56861;DHT22;42744;51.094;3.490;2022-12-29T05:44:23;10.00;99.90
56861;DHT22;42744;51.094;3.490;2022-12-29T05:46:50;10.00;99.90
56861;DHT22;42744;51.094;3.490;2022-12-29T05:49:16;10.00;99.90
56861;DHT22;42744;51.094;3.490;2022-12-29T05:51:46;10.00;99.90
56861;DHT22;42744;51.094;3.490;2022-12-29T05:54:12;10.00;99.90
56861;DHT22;42744;51.094;3.490;2022-12-29T05:56:42;10.00;99.90
56861;DHT22;42744;51.094;3.490;2022-12-29T05:59:08;10.00;99.90
56861;DHT22;42744;51.094;3.490;2022-12-29T06:01:37;10.00;99.90
56861;DHT22;42744;51.094;3.490;2022-12-29T06:04:04;10.00;99.90
56861;DHT22;42744;51.094;3.490;2022-12-29T06:06:31;10.00;99.90
56861;DHT22;42744;51.094;3.490;2022-12-29T06:08:57;10.00;99.90
56861;DHT22;42744;51.094;3.490;2022-12-29T06:11:24;10.00;99.90
56861;DHT22;42744;51.094;3.490;2022-12-29T06:13:50;10.00;99.90
56861;DHT22;42744;51.094;3.490;2022-12-29T06:16:16;10.00;99.90
56861;DHT22;42744;51.094;3.490;2022-12-29T06:18:43;10.00;99.90
56861;DHT22;42744;51.094;3.490;2022-12-29T06:21:10;10.00;99.90
56861;DHT22;42744;51.094;3.490;2022-12-29T06:23:39;10.00;99.90
56861;DHT22;42744;51.094;3.490;2022-12-29T06:26:05;10.00;99.90
56861;DHT22;42744;51.094;3.490;2022-12-29T06:28:32;10.00;99.90
56861;DHT22;42744;51.094;3.490;2022-12-29T06:30:59;10.00;99.90
56861;DHT22;42744;51.094;3.490;2022-12-29T06:33:26;10.00;99.90
56861;DHT22;42744;51.094;3.490;2022-12-29T06:35:52;10.00;99.90
56861;DHT22;42744;51.094;3.490;2022-12-29T06:38:18;9.90;99.90
56861;DHT22;42744;51.094;3.490;2022-12-29T06:40:46;9.80;99.90
56861;DHT22;42744;51.094;3.490;2022-12-29T06:43:14;9.70;99.90
56861;DHT22;42744;51.094;3.490;2022-12-29T06:45:41;9.50;99.90
56861;DHT22;42744;51.094;3.490;2022-12-29T06:48:08;9.40;99.90
56861;DHT22;42744;51.094;3.490;2022-12-29T06:50:34;9.30;99.90
56861;DHT22;42744;51.094;3.490;2022-12-29T06:53:03;9.30;99.90
56861;DHT22;42744;51.094;3.490;2022-12-29T06:55:30;9.20;99.90
56861;DHT22;42744;51.094;3.490;2022-12-29T06:57:57;9.30;99.90
56861;DHT22;42744;51.094;3.490;2022-12-29T07:00:23;9.30;99.90
56861;DHT22;42744;51.094;3.490;2022-12-29T07:02:50;9.40;99.90
56861;DHT22;42744;51.094;3.490;2022-12-29T07:05:16;9.50;99.90
56861;DHT22;42744;51.094;3.490;2022-12-29T07:07:42;9.50;99.90
56861;DHT22;42744;51.094;3.490;2022-12-29T07:10:08;9.60;99.90
56861;DHT22;42744;51.094;3.490;2022-12-29T07:12:34;9.60;99.90
56861;DHT22;42744;51.094;3.490;2022-12-29T07:15:00;9.70;99.90
56861;DHT22;42744;51.094;3.490;2022-12-29T07:17:27;9.70;99.90
56861;DHT22;42744;51.094;3.490;2022-12-29T07:19:53;9.70;99.90
56861;DHT22;42744;51.094;3.490;2022-12-29T07:22:19;9.80;99.90
56861;DHT22;42744;51.094;3.490;2022-12-29T07:24:45;9.80;99.90
56861;DHT22;42744;51.094;3.490;2022-12-29T07:27:11;9.80;99.90
56861;DHT22;42744;51.094;3.490;2022-12-29T07:29:38;9.90;99.90
56861;DHT22;42744;51.094;3.490;2022-12-29T07:32:04;9.90;99.90
56861;DHT22;42744;51.094;3.490;2022-12-29T07:34:30;9.90;99.90
56861;DHT22;42744;51.094;3.490;2022-12-29T07:36:56;9.90;99.90
56861;DHT22;42744;51.094;3.490;2022-12-29T07:39:23;9.90;99.90
56861;DHT22;42744;51.094;3.490;2022-12-29T07:42:09;9.90;99.90
56861;DHT22;42744;51.094;3.490;2022-12-29T07:44:39;9.90;99.90
56861;DHT22;42744;51.094;3.490;2022-12-29T07:47:07;9.90;99.90
56861;DHT22;42744;51.094;3.490;2022-12-29T07:49:36;9.90;99.90
56861;DHT22;42744;51.094;3.490;2022-12-29T07:52:02;9.90;99.90
56861;DHT22;42744;51.094;3.490;2022-12-29T07:54:28;9.90;99.90
56861;DHT22;42744;51.094;3.490;2022-12-29T07:56:54;9.80;99.90
56861;DHT22;42744;51.094;3.490;2022-12-29T07:59:20;9.80;99.90
56861;DHT22;42744;51.094;3.490;2022-12-29T08:01:46;9.70;99.90
56861;DHT22;42744;51.094;3.490;2022-12-29T08:04:16;9.70;99.90
56861;DHT22;42744;51.094;3.490;2022-12-29T08:06:42;9.60;99.90
56861;DHT22;42744;51.094;3.490;2022-12-29T08:09:08;9.50;99.90
56861;DHT22;42744;51.094;3.490;2022-12-29T08:11:35;9.40;99.90
56861;DHT22;42744;51.094;3.490;2022-12-29T08:14:02;9.30;99.90
56861;DHT22;42744;51.094;3.490;2022-12-29T08:16:32;9.20;99.90
56861;DHT22;42744;51.094;3.490;2022-12-29T08:19:11;9.20;99.90
56861;DHT22;42744;51.094;3.490;2022-12-29T08:21:37;9.20;99.90
56861;DHT22;42744;51.094;3.490;2022-12-29T08:24:08;9.10;99.90
56861;DHT22;42744;51.094;3.490;2022-12-29T08:26:37;9.20;99.90
56861;DHT22;42744;51.094;3.490;2022-12-29T08:29:03;9.20;99.90
56861;DHT22;42744;51.094;3.490;2022-12-29T08:31:30;9.20;99.90
56861;DHT22;42744;51.094;3.490;2022-12-29T08:33:56;9.20;99.90
56861;DHT22;42744;51.094;3.490;2022-12-29T08:36:22;9.20;99.90
56861;DHT22;42744;51.094;3.490;2022-12-29T08:38:53;9.20;99.90
56861;DHT22;42744;51.094;3.490;2022-12-29T08:41:19;9.20;99.90
56861;DHT22;42744;51.094;3.490;2022-12-29T08:43:46;9.20;99.90
56861;DHT22;42744;51.094;3.490;2022-12-29T08:46:13;9.20;99.90
56861;DHT22;42744;51.094;3.490;2022-12-29T08:48:39;9.20;99.90
56861;DHT22;42744;51.094;3.490;2022-12-29T08:51:05;9.10;99.90
56861;DHT22;42744;51.094;3.490;2022-12-29T08:53:31;9.10;99.90
56861;DHT22;42744;51.094;3.490;2022-12-29T08:55:59;9.10;99.90
56861;DHT22;42744;51.094;3.490;2022-12-29T08:58:26;9.10;99.90
56861;DHT22;42744;51.094;3.490;2022-12-29T09:00:58;9.10;99.90
56861;DHT22;42744;51.094;3.490;2022-12-29T09:03:25;9.20;99.90
56861;DHT22;42744;51.094;3.490;2022-12-29T09:05:55;9.20;99.90
56861;DHT22;42744;51.094;3.490;2022-12-29T09:08:22;9.20;99.90
56861;DHT22;42744;51.094;3.490;2022-12-29T09:10:49;9.30;99.90
56861;DHT22;42744;51.094;3.490;2022-12-29T09:13:15;9.30;99.90
56861;DHT22;42744;51.094;3.490;2022-12-29T09:15:42;9.30;99.90
56861;DHT22;42744;51.094;3.490;2022-12-29T09:18:12;9.30;99.90
56861;DHT22;42744;51.094;3.490;2022-12-29T09:20:38;9.40;99.90
56861;DHT22;42744;51.094;3.490;2022-12-29T09:23:05;9.30;99.90
56861;DHT22;42744;51.094;3.490;2022-12-29T09:25:34;9.40;99.90
56861;DHT22;42744;51.094;3.490;2022-12-29T09:28:00;9.40;99.90
56861;DHT22;42744;51.094;3.490;2022-12-29T09:30:32;9.50;99.90
56861;DHT22;42744;51.094;3.490;2022-12-29T09:33:03;9.50;99.90
56861;DHT22;42744;51.094;3.490;2022-12-29T09:35:29;9.50;99.90
56861;DHT22;42744;51.094;3.490;2022-12-29T09:37:56;9.50;99.90
56861;DHT22;42744;51.094;3.490;2022-12-29T09:40:28;9.50;99.90
56861;DHT22;42744;51.094;3.490;2022-12-29T09:43:16;9.50;99.90
56861;DHT22;42744;51.094;3.490;2022-12-29T09:45:47;9.50;99.90
56861;DHT22;42744;51.094;3.490;2022-12-29T09:48:24;9.50;99.90
56861;DHT22;42744;51.094;3.490;2022-12-29T09:50:56;9.60;99.90
56861;DHT22;42744;51.094;3.490;2022-12-29T09:53:49;9.60;99.90
56861;DHT22;42744;51.094;3.490;2022-12-29T09:56:21;9.70;99.90
56861;DHT22;42744;51.094;3.490;2022-12-29T09:59:02;9.70;99.90
56861;DHT22;42744;51.094;3.490;2022-12-29T10:01:46;9.70;99.90
56861;DHT22;42744;51.094;3.490;2022-12-29T10:04:17;9.70;99.90
56861;DHT22;42744;51.094;3.490;2022-12-29T10:06:54;9.70;99.90
56861;DHT22;42744;51.094;3.490;2022-12-29T10:09:34;9.70;99.90
56861;DHT22;42744;51.094;3.490;2022-12-29T10:12:34;9.70;99.90
56861;DHT22;42744;51.094;3.490;2022-12-29T10:23:29;9.90;99.90
56861;DHT22;42744;51.094;3.490;2022-12-29T10:25:58;10.00;99.90
56861;DHT22;42744;51.094;3.490;2022-12-29T10:28:41;10.10;99.90
56861;DHT22;42744;51.094;3.490;2022-12-29T10:34:37;10.70;99.90
56861;DHT22;42744;51.094;3.490;2022-12-29T10:37:17;11.00;99.90
56861;DHT22;42744;51.094;3.490;2022-12-29T10:39:50;11.00;99.90
56861;DHT22;42744;51.094;3.490;2022-12-29T10:42:26;11.10;99.90
56861;DHT22;42744;51.094;3.490;2022-12-29T10:44:54;11.10;99.90
56861;DHT22;42744;51.094;3.490;2022-12-29T10:47:29;11.00;99.90
56861;DHT22;42744;51.094;3.490;2022-12-29T10:49:56;10.80;99.90
56861;DHT22;42744;51.094;3.490;2022-12-29T10:52:26;10.70;99.90
56861;DHT22;42744;51.094;3.490;2022-12-29T10:55:08;10.60;99.90
56861;DHT22;42744;51.094;3.490;2022-12-29T10:57:43;10.60;99.90
56861;DHT22;42744;51.094;3.490;2022-12-29T11:00:15;10.60;99.90
56861;DHT22;42744;51.094;3.490;2022-12-29T11:08:41;10.50;99.90
56861;DHT22;42744;51.094;3.490;2022-12-29T11:11:25;10.50;99.90
56861;DHT22;42744;51.094;3.490;2022-12-29T11:13:58;10.40;99.90
56861;DHT22;42744;51.094;3.490;2022-12-29T11:16:32;10.40;99.90
56861;DHT22;42744;51.094;3.490;2022-12-29T11:19:03;10.40;99.90
56861;DHT22;42744;51.094;3.490;2022-12-29T11:21:38;10.30;99.90
56861;DHT22;42744;51.094;3.490;2022-12-29T11:26:51;10.20;99.90
56861;DHT22;42744;51.094;3.490;2022-12-29T11:29:28;10.20;99.90
56861;DHT22;42744;51.094;3.490;2022-12-29T11:31:58;10.20;99.90
56861;DHT22;42744;51.094;3.490;2022-12-29T11:34:35;10.10;99.90
56861;DHT22;42744;51.094;3.490;2022-12-29T11:37:16;10.00;99.90
56861;DHT22;42744;51.094;3.490;2022-12-29T11:42:19;9.80;99.90
56861;DHT22;42744;51.094;3.490;2022-12-29T11:44:48;9.80;99.90
56861;DHT22;42744;51.094;3.490;2022-12-29T11:47:28;9.80;99.90
56861;DHT22;42744;51.094;3.490;2022-12-29T11:49:58;9.80;99.90
56861;DHT22;42744;51.094;3.490;2022-12-29T11:52:29;9.90;99.90
56861;DHT22;42744;51.094;3.490;2022-12-29T11:55:00;9.90;99.90
56861;DHT22;42744;51.094;3.490;2022-12-29T11:57:29;9.90;99.90
56861;DHT22;42744;51.094;3.490;2022-12-29T12:00:17;9.90;99.90
56861;DHT22;42744;51.094;3.490;2022-12-29T12:03:04;9.90;99.90
56861;DHT22;42744;51.094;3.490;2022-12-29T12:08:28;9.90;99.90
56861;DHT22;42744;51.094;3.490;2022-12-29T12:11:14;9.90;99.90
56861;DHT22;42744;51.094;3.490;2022-12-29T12:16:50;9.90;99.90
56861;DHT22;42744;51.094;3.490;2022-12-29T12:19:32;9.80;99.90
56861;DHT22;42744;51.094;3.490;2022-12-29T12:22:20;9.90;99.90
56861;DHT22;42744;51.094;3.490;2022-12-29T12:30:25;10.10;99.90
56861;DHT22;42744;51.094;3.490;2022-12-29T12:32:59;10.10;99.90
56861;DHT22;42744;51.094;3.490;2022-12-29T12:49:37;10.20;99.90
56861;DHT22;42744;51.094;3.490;2022-12-29T12:52:32;10.20;99.90
56861;DHT22;42744;51.094;3.490;2022-12-29T12:55:18;10.10;99.90
56861;DHT22;42744;51.094;3.490;2022-12-29T12:58:09;10.10;99.90
56861;DHT22;42744;51.094;3.490;2022-12-29T13:00:53;10.10;99.90
56861;DHT22;42744;51.094;3.490;2022-12-29T13:06:47;10.00;99.90
56861;DHT22;42744;51.094;3.490;2022-12-29T13:09:41;9.90;99.90
56861;DHT22;42744;51.094;3.490;2022-12-29T13:21:12;9.70;99.90
56861;DHT22;42744;51.094;3.490;2022-12-29T13:24:25;9.60;99.90
56861;DHT22;42744;51.094;3.490;2022-12-29T13:27:13;9.50;99.90
56861;DHT22;42744;51.094;3.490;2022-12-29T13:35:08;9.20;99.90
56861;DHT22;42744;51.094;3.490;2022-12-29T13:37:53;9.20;99.90
56861;DHT22;42744;51.094;3.490;2022-12-29T13:40:24;9.20;99.90
56861;DHT22;42744;51.094;3.490;2022-12-29T13:42:52;9.20;99.90
56861;DHT22;42744;51.094;3.490;2022-12-29T13:45:24;9.10;99.90
56861;DHT22;42744;51.094;3.490;2022-12-29T13:48:05;9.10;99.90
56861;DHT22;42744;51.094;3.490;2022-12-29T13:50:36;9.10;99.90
56861;DHT22;42744;51.094;3.490;2022-12-29T13:53:24;9.10;99.90
56861;DHT22;42744;51.094;3.490;2022-12-29T13:56:19;9.10;99.90
56861;DHT22;42744;51.094;3.490;2022-12-29T13:59:04;9.10;99.90
56861;DHT22;42744;51.094;3.490;2022-12-29T14:04:13;9.10;99.90
56861;DHT22;42744;51.094;3.490;2022-12-29T14:06:39;9.10;99.90
56861;DHT22;42744;51.094;3.490;2022-12-29T14:11:56;9.00;99.90
56861;DHT22;42744;51.094;3.490;2022-12-29T14:14:24;9.00;99.90
56861;DHT22;42744;51.094;3.490;2022-12-29T14:17:10;8.90;99.90
56861;DHT22;42744;51.094;3.490;2022-12-29T14:19:41;9.00;99.90
56861;DHT22;42744;51.094;3.490;2022-12-29T14:22:11;9.00;99.90
56861;DHT22;42744;51.094;3.490;2022-12-29T14:24:44;9.00;99.90
56861;DHT22;42744;51.094;3.490;2022-12-29T14:35:00;9.00;99.90
56861;DHT22;42744;51.094;3.490;2022-12-29T14:37:32;8.90;99.90
56861;DHT22;42744;51.094;3.490;2022-12-29T14:40:16;8.90;99.90
56861;DHT22;42744;51.094;3.490;2022-12-29T14:42:47;8.90;99.90
56861;DHT22;42744;51.094;3.490;2022-12-29T14:47:41;8.80;99.90
56861;DHT22;42744;51.094;3.490;2022-12-29T14:50:25;8.80;99.90
56861;DHT22;42744;51.094;3.490;2022-12-29T14:52:59;8.80;99.90
56861;DHT22;42744;51.094;3.490;2022-12-29T14:58:42;8.70;99.90
56861;DHT22;42744;51.094;3.490;2022-12-29T15:01:20;8.70;99.90
56861;DHT22;42744;51.094;3.490;2022-12-29T15:03:49;8.70;99.90
56861;DHT22;42744;51.094;3.490;2022-12-29T15:06:17;8.80;99.90
56861;DHT22;42744;51.094;3.490;2022-12-29T15:11:27;8.70;99.90
56861;DHT22;42744;51.094;3.490;2022-12-29T15:13:54;8.80;99.90
56861;DHT22;42744;51.094;3.490;2022-12-29T15:16:26;8.70;99.90
56861;DHT22;42744;51.094;3.490;2022-12-29T15:18:55;8.70;99.90
56861;DHT22;42744;51.094;3.490;2022-12-29T15:21:30;8.70;99.90
56861;DHT22;42744;51.094;3.490;2022-12-29T15:23:57;8.60;99.90
56861;DHT22;42744;51.094;3.490;2022-12-29T15:26:38;8.60;99.90
56861;DHT22;42744;51.094;3.490;2022-12-29T15:29:05;8.60;99.90
56861;DHT22;42744;51.094;3.490;2022-12-29T15:31:31;8.50;99.90
56861;DHT22;42744;51.094;3.490;2022-12-29T15:34:10;8.50;99.90
56861;DHT22;42744;51.094;3.490;2022-12-29T15:36:39;8.50;99.90
56861;DHT22;42744;51.094;3.490;2022-12-29T15:39:30;8.50;99.90
56861;DHT22;42744;51.094;3.490;2022-12-29T15:42:05;8.50;99.90
56861;DHT22;42744;51.094;3.490;2022-12-29T15:44:43;8.40;99.90
56861;DHT22;42744;51.094;3.490;2022-12-29T15:47:21;8.40;99.90
56861;DHT22;42744;51.094;3.490;2022-12-29T15:49:49;8.30;99.90
56861;DHT22;42744;51.094;3.490;2022-12-29T15:52:19;8.30;99.90
56861;DHT22;42744;51.094;3.490;2022-12-29T15:54:47;8.20;99.90
56861;DHT22;42744;51.094;3.490;2022-12-29T15:57:27;8.20;99.90
56861;DHT22;42744;51.094;3.490;2022-12-29T15:59:57;8.10;99.90
56861;DHT22;42744;51.094;3.490;2022-12-29T16:02:24;8.10;99.90
56861;DHT22;42744;51.094;3.490;2022-12-29T16:04:51;8.00;99.90
56861;DHT22;42744;51.094;3.490;2022-12-29T16:07:55;7.90;99.90
56861;DHT22;42744;51.094;3.490;2022-12-29T16:12:54;7.80;99.90
56861;DHT22;42744;51.094;3.490;2022-12-29T16:15:21;7.80;99.90
56861;DHT22;42744;51.094;3.490;2022-12-29T16:17:50;7.80;99.90
56861;DHT22;42744;51.094;3.490;2022-12-29T16:20:22;7.70;99.90
56861;DHT22;42744;51.094;3.490;2022-12-29T16:22:55;7.70;99.90
56861;DHT22;42744;51.094;3.490;2022-12-29T16:25:22;7.70;99.90
56861;DHT22;42744;51.094;3.490;2022-12-29T16:27:51;7.60;99.90
56861;DHT22;42744;51.094;3.490;2022-12-29T16:30:28;7.60;99.90
56861;DHT22;42744;51.094;3.490;2022-12-29T16:32:57;7.60;99.90
56861;DHT22;42744;51.094;3.490;2022-12-29T16:35:25;7.60;99.90
56861;DHT22;42744;51.094;3.490;2022-12-29T16:38:18;7.60;99.90
56861;DHT22;42744;51.094;3.490;2022-12-29T16:40:59;7.50;99.90
56861;DHT22;42744;51.094;3.490;2022-12-29T16:43:35;7.50;99.90
56861;DHT22;42744;51.094;3.490;2022-12-29T16:46:24;7.50;99.90
56861;DHT22;42744;51.094;3.490;2022-12-29T16:48:54;7.50;99.90
56861;DHT22;42744;51.094;3.490;2022-12-29T16:51:35;7.50;99.90
56861;DHT22;42744;51.094;3.490;2022-12-29T16:54:02;7.50;99.90
56861;DHT22;42744;51.094;3.490;2022-12-29T16:56:33;7.40;99.90
56861;DHT22;42744;51.094;3.490;2022-12-29T17:01:30;7.50;99.90
56861;DHT22;42744;51.094;3.490;2022-12-29T17:04:00;7.50;99.90
56861;DHT22;42744;51.094;3.490;2022-12-29T17:06:30;7.50;99.90
56861;DHT22;42744;51.094;3.490;2022-12-29T17:08:56;7.50;99.90
56861;DHT22;42744;51.094;3.490;2022-12-29T17:11:27;7.50;99.90
56861;DHT22;42744;51.094;3.490;2022-12-29T17:14:43;7.40;99.90
56861;DHT22;42744;51.094;3.490;2022-12-29T17:17:38;7.40;99.90
56861;DHT22;42744;51.094;3.490;2022-12-29T17:20:14;7.50;99.90
56861;DHT22;42744;51.094;3.490;2022-12-29T17:22:41;7.50;99.90
56861;DHT22;42744;51.094;3.490;2022-12-29T17:25:19;7.50;99.90
56861;DHT22;42744;51.094;3.490;2022-12-29T17:27:58;7.50;99.90
56861;DHT22;42744;51.094;3.490;2022-12-29T17:30:26;7.50;99.90
56861;DHT22;42744;51.094;3.490;2022-12-29T17:33:06;7.50;99.90
56861;DHT22;42744;51.094;3.490;2022-12-29T17:35:40;7.50;99.90
56861;DHT22;42744;51.094;3.490;2022-12-29T17:40:42;7.60;99.90
56861;DHT22;42744;51.094;3.490;2022-12-29T17:43:13;7.60;99.90
56861;DHT22;42744;51.094;3.490;2022-12-29T17:45:40;7.60;99.90
56861;DHT22;42744;51.094;3.490;2022-12-29T17:48:12;7.60;99.90
56861;DHT22;42744;51.094;3.490;2022-12-29T17:50:40;7.60;99.90
56861;DHT22;42744;51.094;3.490;2022-12-29T17:53:20;7.70;99.90
56861;DHT22;42744;51.094;3.490;2022-12-29T17:55:50;7.70;99.90
56861;DHT22;42744;51.094;3.490;2022-12-29T17:58:18;7.60;99.90
56861;DHT22;42744;51.094;3.490;2022-12-29T18:00:47;7.60;99.90
56861;DHT22;42744;51.094;3.490;2022-12-29T18:03:16;7.60;99.90
56861;DHT22;42744;51.094;3.490;2022-12-29T18:05:44;7.60;99.90
56861;DHT22;42744;51.094;3.490;2022-12-29T18:08:11;7.50;99.90
56861;DHT22;42744;51.094;3.490;2022-12-29T18:10:38;7.60;99.90
56861;DHT22;42744;51.094;3.490;2022-12-29T18:13:05;7.60;99.90
56861;DHT22;42744;51.094;3.490;2022-12-29T18:15:34;7.60;99.90
56861;DHT22;42744;51.094;3.490;2022-12-29T18:18:09;7.60;99.90
56861;DHT22;42744;51.094;3.490;2022-12-29T18:20:36;7.60;99.90
56861;DHT22;42744;51.094;3.490;2022-12-29T18:23:02;7.60;99.90
56861;DHT22;42744;51.094;3.490;2022-12-29T18:25:50;7.60;99.90
56861;DHT22;42744;51.094;3.490;2022-12-29T18:28:18;7.60;99.90
56861;DHT22;42744;51.094;3.490;2022-12-29T18:30:51;7.60;99.90
56861;DHT22;42744;51.094;3.490;2022-12-29T18:33:21;7.60;99.90
56861;DHT22;42744;51.094;3.490;2022-12-29T18:35:58;7.60;99.90
56861;DHT22;42744;51.094;3.490;2022-12-29T18:38:27;7.60;99.90